createdAt,value
2022-08-12T00:00:36.553Z,37.83
2022-08-12T00:03:22.509Z,37.89
2022-08-12T00:06:08.810Z,38.00
2022-08-12T00:08:57.496Z,37.82
2022-08-12T00:11:46.062Z,38.00
2022-08-12T00:14:32.917Z,38.34
2022-08-12T00:17:19.038Z,38.54
2022-08-12T00:20:05.589Z,38.30
2022-08-12T00:22:58.738Z,38.69
2022-08-12T00:26:21.758Z,38.44
2022-08-12T00:29:04.402Z,38.87
2022-08-12T00:31:50.200Z,39.13
2022-08-12T00:34:36.535Z,39.04
2022-08-12T00:37:22.974Z,38.85
2022-08-12T00:40:11.668Z,39.49
2022-08-12T00:42:41.681Z,39.40
2022-08-12T00:45:13.568Z,39.09
2022-08-12T00:47:42.374Z,39.26
2022-08-12T00:50:18.246Z,39.73
2022-08-12T00:52:47.946Z,39.83
2022-08-12T00:55:17.274Z,39.39
2022-08-12T00:57:48.849Z,39.84
2022-08-12T01:00:22.417Z,40.04
2022-08-12T01:02:53.200Z,39.87
2022-08-12T01:05:42.037Z,40.26
2022-08-12T01:08:28.838Z,40.16
2022-08-12T01:11:15.811Z,40.23
2022-08-12T01:13:49.406Z,39.84
2022-08-12T01:16:22.851Z,39.98
2022-08-12T01:18:54.697Z,40.29
2022-08-12T01:21:52.497Z,40.23
2022-08-12T01:24:50.642Z,40.28
2022-08-12T01:27:22.869Z,40.59
2022-08-12T01:29:54.781Z,40.74
2022-08-12T01:32:24.941Z,40.64
2022-08-12T01:35:05.730Z,40.74
2022-08-12T01:37:37.797Z,40.92
2022-08-12T01:40:34.488Z,40.77
2022-08-12T01:43:08.466Z,40.71
2022-08-12T01:45:43.783Z,40.77
2022-08-12T01:48:24.072Z,40.90
2022-08-12T01:51:04.583Z,41.29
2022-08-12T01:53:59.479Z,41.11
2022-08-12T01:56:43.693Z,40.97
2022-08-12T01:59:31.316Z,41.01
2022-08-12T02:02:01.347Z,41.40
2022-08-12T02:05:19.534Z,41.14
2022-08-12T02:08:20.594Z,41.34
2022-08-12T02:11:18.682Z,41.42
2022-08-12T02:14:03.927Z,41.50
2022-08-12T02:16:51.766Z,41.53
2022-08-12T02:19:40.594Z,41.48
2022-08-12T02:22:27.714Z,41.82
2022-08-12T02:25:09.324Z,41.84
2022-08-12T02:27:41.087Z,41.97
2022-08-12T02:30:14.459Z,41.82
2022-08-12T02:32:46.195Z,41.84
2022-08-12T02:35:19.754Z,41.94
2022-08-12T02:37:51.580Z,41.89
2022-08-12T02:40:22.595Z,41.95
2022-08-12T02:42:59.246Z,42.16
2022-08-12T02:45:38.136Z,42.21
2022-08-12T02:48:10.644Z,42.21
2022-08-12T02:50:48.482Z,42.26
2022-08-12T02:53:18.601Z,42.34
2022-08-12T02:55:47.338Z,42.41
2022-08-12T02:58:16.040Z,42.56
2022-08-12T03:00:49.986Z,42.82
2022-08-12T03:03:20.617Z,42.79
2022-08-12T03:05:58.349Z,42.76
2022-08-12T03:08:33.229Z,42.90
2022-08-12T03:11:14.665Z,42.81
2022-08-12T03:13:48.034Z,42.88
2022-08-12T03:16:18.345Z,42.97
2022-08-12T03:18:46.972Z,43.10
2022-08-12T03:21:52.687Z,43.20
2022-08-12T03:24:09.478Z,43.25
2022-08-12T03:26:39.065Z,43.46
2022-08-12T03:29:08.541Z,43.52
2022-08-12T03:31:38.267Z,43.62
2022-08-12T03:34:09.354Z,43.45
2022-08-12T03:36:40.568Z,43.56
2022-08-12T03:39:35.507Z,43.64
2022-08-12T03:42:24.223Z,43.61
2022-08-12T03:45:24.718Z,43.61
2022-08-12T03:48:19.395Z,43.54
2022-08-12T03:51:06.489Z,43.62
2022-08-12T03:53:52.780Z,43.83
2022-08-12T03:56:38.856Z,43.81
2022-08-12T03:59:26.068Z,43.86
2022-08-12T04:01:57.528Z,43.79
2022-08-12T04:04:34.703Z,43.95
2022-08-12T04:07:07.882Z,43.96
2022-08-12T04:09:39.648Z,43.94
2022-08-12T04:12:26.743Z,43.98
2022-08-12T04:15:02.738Z,44.01
2022-08-12T04:17:32.095Z,44.26
2022-08-12T04:20:01.866Z,44.26
2022-08-12T04:22:31.193Z,44.35
2022-08-12T04:25:01.979Z,44.44
2022-08-12T04:27:32.712Z,44.43
2022-08-12T04:30:17.097Z,44.50
2022-08-12T04:32:52.238Z,44.48
2022-08-12T04:35:23.781Z,44.50
2022-08-12T04:37:59.130Z,44.46
2022-08-12T04:40:31.922Z,44.55
2022-08-12T04:43:02.242Z,44.71
2022-08-12T04:45:31.378Z,44.85
2022-08-12T04:48:01.662Z,45.02
2022-08-12T04:50:36.168Z,44.90
2022-08-12T04:53:08.149Z,44.95
2022-08-12T04:55:38.689Z,45.31
2022-08-12T04:58:07.267Z,45.19
2022-08-12T05:00:36.005Z,44.95
2022-08-12T05:03:05.837Z,44.90
2022-08-12T05:05:37.991Z,44.84
2022-08-12T05:08:12.199Z,44.75
2022-08-12T05:10:40.774Z,44.89
2022-08-12T05:13:12.587Z,45.11
2022-08-12T05:16:00.275Z,45.39
2022-08-12T05:18:31.558Z,45.26
2022-08-12T05:21:01.289Z,45.38
2022-08-12T05:23:32.045Z,45.32
2022-08-12T05:26:01.547Z,45.17
2022-08-12T05:28:31.186Z,45.38
2022-08-12T05:31:01.845Z,45.65
2022-08-12T05:33:37.578Z,45.77
2022-08-12T05:36:09.962Z,45.71
2022-08-12T05:38:55.592Z,45.69
2022-08-12T05:41:24.893Z,45.77
2022-08-12T05:43:56.642Z,45.96
2022-08-12T05:46:26.768Z,45.71
2022-08-12T05:48:56.628Z,45.80
2022-08-12T05:51:39.924Z,45.53
2022-08-12T05:54:11.867Z,45.81
2022-08-12T05:56:41.602Z,45.46
2022-08-12T05:59:12.209Z,45.38
2022-08-12T06:02:12.666Z,45.50
2022-08-12T06:04:30.080Z,45.75
2022-08-12T06:07:01.827Z,45.73
2022-08-12T06:09:31.325Z,45.25
2022-08-12T06:12:05.680Z,44.73
2022-08-12T06:14:37.750Z,44.79
2022-08-12T06:17:09.129Z,44.89
2022-08-12T06:20:25.966Z,44.31
2022-08-12T06:22:27.894Z,43.67
2022-08-12T06:24:56.263Z,43.54
2022-08-12T06:27:24.590Z,43.19
2022-08-12T06:30:08.820Z,42.57
2022-08-12T06:32:51.642Z,42.45
2022-08-12T06:35:49.348Z,42.40
2022-08-12T06:38:21.446Z,41.75
2022-08-12T06:41:11.759Z,41.51
2022-08-12T06:44:05.915Z,40.94
2022-08-12T06:46:31.244Z,40.71
2022-08-12T06:49:00.600Z,40.07
2022-08-12T06:51:32.794Z,39.92
2022-08-12T06:54:03.205Z,39.72
2022-08-12T06:57:03.604Z,39.43
2022-08-12T06:59:21.477Z,39.21
2022-08-12T07:01:51.693Z,39.19
2022-08-12T07:04:38.287Z,38.74
2022-08-12T07:07:08.965Z,38.34
2022-08-12T07:10:01.613Z,38.23
2022-08-12T07:12:28.721Z,37.86
2022-08-12T07:14:58.218Z,37.63
2022-08-12T07:17:27.974Z,37.31
2022-08-12T07:20:00.597Z,37.46
2022-08-12T07:22:33.160Z,37.48
2022-08-12T07:25:40.865Z,36.85
2022-08-12T07:28:16.400Z,36.77
2022-08-12T07:30:48.474Z,36.55
2022-08-12T07:33:17.965Z,35.93
2022-08-12T07:35:48.257Z,35.33
2022-08-12T07:38:29.576Z,35.04
2022-08-12T07:41:06.136Z,34.37
2022-08-12T07:43:39.400Z,33.96
2022-08-12T07:46:11.330Z,33.80
2022-08-12T07:48:43.755Z,33.59
2022-08-12T07:51:12.944Z,33.23
2022-08-12T07:54:00.710Z,33.49
2022-08-12T07:56:32.963Z,33.24
2022-08-12T07:59:03.027Z,33.24
2022-08-12T08:01:32.989Z,32.79
2022-08-12T08:04:19.576Z,32.84
2022-08-12T08:06:49.326Z,32.84
2022-08-12T08:09:22.756Z,32.39
2022-08-12T08:12:19.255Z,32.32
2022-08-12T08:14:50.152Z,32.90
2022-08-12T08:17:18.979Z,32.44
2022-08-12T08:20:03.508Z,32.39
2022-08-12T08:22:41.709Z,32.32
2022-08-12T08:25:35.829Z,32.12
2022-08-12T08:28:03.380Z,32.06
2022-08-12T08:30:33.195Z,31.99
2022-08-12T08:33:01.599Z,31.77
2022-08-12T08:35:46.307Z,31.78
2022-08-12T08:38:30.739Z,31.67
2022-08-12T08:42:15.752Z,31.25
2022-08-12T08:44:10.899Z,30.78
2022-08-12T08:46:39.981Z,30.59
2022-08-12T08:49:08.950Z,29.84
2022-08-12T08:51:38.558Z,29.40
2022-08-12T08:54:08.642Z,29.52
2022-08-12T08:56:44.544Z,29.64
2022-08-12T08:59:15.369Z,29.24
2022-08-12T09:01:44.783Z,29.11
2022-08-12T09:05:09.528Z,28.49
2022-08-12T09:07:17.082Z,28.16
2022-08-12T09:10:02.286Z,29.21
2022-08-12T09:12:54.901Z,28.93
2022-08-12T09:15:35.544Z,28.33
2022-08-12T09:18:08.736Z,27.05
2022-08-12T09:20:40.002Z,26.64
2022-08-12T09:23:59.615Z,27.17
2022-08-12T09:26:04.559Z,26.26
2022-08-12T09:28:34.430Z,25.38
2022-08-12T09:32:02.834Z,25.06
2022-08-12T09:34:25.426Z,25.65
2022-08-12T09:37:00.216Z,24.92
2022-08-12T09:40:07.988Z,24.32
2022-08-12T09:42:54.270Z,24.35
2022-08-12T09:46:06.694Z,24.83
2022-08-12T09:48:20.148Z,24.30
2022-08-12T09:50:55.276Z,23.43
2022-08-12T09:53:36.540Z,23.94
2022-08-12T09:56:59.369Z,23.21
2022-08-12T09:59:01.791Z,22.90
2022-08-12T10:01:34.920Z,23.37
2022-08-12T10:04:20.739Z,22.84
2022-08-12T10:06:55.475Z,22.54
2022-08-12T10:09:28.606Z,22.89
2022-08-12T10:12:33.551Z,22.78
2022-08-12T10:15:02.554Z,22.74
2022-08-12T10:17:31.100Z,24.11
2022-08-12T10:20:01.429Z,22.89
2022-08-12T10:22:49.098Z,22.64
2022-08-12T10:26:36.558Z,22.76
2022-08-12T10:28:41.143Z,22.81
2022-08-12T10:31:29.468Z,22.37
2022-08-12T10:34:26.230Z,22.11
2022-08-12T10:37:10.465Z,22.18
2022-08-12T10:40:01.311Z,20.95
2022-08-12T10:43:00.559Z,21.20
2022-08-12T10:45:31.230Z,21.19
2022-08-12T10:48:07.180Z,20.42
2022-08-12T10:51:01.044Z,21.28
2022-08-12T10:53:45.458Z,21.10
2022-08-12T10:56:15.648Z,20.87
2022-08-12T10:58:46.218Z,21.96
2022-08-12T11:03:01.551Z,21.31
2022-08-12T11:04:27.159Z,21.29
2022-08-12T11:07:09.475Z,20.79
2022-08-12T11:10:00.965Z,21.04
2022-08-12T11:12:54.933Z,20.70
2022-08-12T11:15:24.213Z,20.90
2022-08-12T11:18:03.217Z,20.80
2022-08-12T11:20:31.831Z,21.41
2022-08-12T11:23:04.051Z,20.70
2022-08-12T11:25:57.344Z,20.66
2022-08-12T11:28:33.957Z,21.07
2022-08-12T11:31:04.873Z,20.64
2022-08-12T11:34:04.286Z,20.48
2022-08-12T11:36:22.476Z,20.28
2022-08-12T11:38:51.437Z,20.08
2022-08-12T11:41:31.150Z,20.10
2022-08-12T11:44:34.908Z,20.06
2022-08-12T11:46:51.430Z,20.03
2022-08-12T11:49:32.349Z,20.84
2022-08-12T11:52:02.801Z,20.60
2022-08-12T11:54:31.924Z,20.63
2022-08-12T11:58:07.355Z,20.72
2022-08-12T12:02:40.831Z,20.96
2022-08-12T12:05:09.997Z,21.22
2022-08-12T12:08:37.727Z,21.16
2022-08-12T12:10:29.198Z,21.38
2022-08-12T12:12:58.926Z,21.48
2022-08-12T12:15:40.747Z,21.28
2022-08-12T12:18:22.516Z,22.65
2022-08-12T12:21:01.216Z,22.43
2022-08-12T12:23:30.893Z,21.91
2022-08-12T12:26:08.290Z,21.87
2022-08-12T12:28:41.515Z,21.70
2022-08-12T12:32:09.258Z,21.61
2022-08-12T12:34:12.682Z,22.14
2022-08-12T12:37:00.889Z,21.53
2022-08-12T12:39:54.580Z,21.40
2022-08-12T12:42:43.185Z,21.13
2022-08-12T12:45:19.768Z,20.99
2022-08-12T12:48:00.190Z,21.11
2022-08-12T12:52:17.169Z,21.11
2022-08-12T12:54:12.973Z,21.09
2022-08-12T12:56:49.999Z,20.74
2022-08-12T12:59:35.011Z,20.61
2022-08-12T13:02:08.819Z,20.40
2022-08-12T13:04:38.246Z,20.00
2022-08-12T13:07:07.929Z,20.53
2022-08-12T13:09:36.934Z,20.92
2022-08-12T13:12:10.787Z,21.21
2022-08-12T13:14:39.997Z,21.31
2022-08-12T13:17:11.367Z,22.03
2022-08-12T13:19:45.427Z,22.04
2022-08-12T13:22:20.794Z,22.63
2022-08-12T13:24:55.904Z,22.64
2022-08-12T13:27:34.669Z,22.84
2022-08-12T13:30:13.793Z,22.83
2022-08-12T13:32:57.129Z,22.50
2022-08-12T13:35:33.702Z,22.28
2022-08-12T13:38:15.773Z,22.59
2022-08-12T13:40:55.966Z,22.24
2022-08-12T13:43:40.541Z,22.16
2022-08-12T13:46:12.395Z,22.24
2022-08-12T13:48:45.161Z,22.58
2022-08-12T13:51:14.413Z,22.60
2022-08-12T13:53:55.340Z,22.65
2022-08-12T13:56:34.779Z,22.31
2022-08-12T13:59:08.575Z,22.33
2022-08-12T14:01:40.557Z,22.30
2022-08-12T14:04:11.619Z,22.20
2022-08-12T14:06:40.901Z,22.24
2022-08-12T14:09:17.391Z,22.04
2022-08-12T14:11:58.773Z,21.92
2022-08-12T14:14:31.284Z,21.88
2022-08-12T14:17:05.641Z,22.60
2022-08-12T14:19:48.701Z,22.52
2022-08-12T14:22:26.044Z,23.31
2022-08-12T14:24:55.454Z,23.76
2022-08-12T14:28:03.943Z,24.49
2022-08-12T14:30:28.840Z,24.89
2022-08-12T14:32:58.060Z,25.51
2022-08-12T14:35:28.102Z,25.95
2022-08-12T14:38:25.895Z,27.69
2022-08-12T14:40:57.655Z,28.17
2022-08-12T14:43:31.524Z,28.96
2022-08-12T14:46:01.825Z,28.72
2022-08-12T14:48:30.654Z,27.62
2022-08-12T14:52:10.624Z,27.26
2022-08-12T14:55:24.741Z,26.24
2022-08-12T14:59:58.162Z,25.71
2022-08-12T15:02:28.537Z,25.80
2022-08-12T15:04:59.301Z,25.88
2022-08-12T15:07:33.524Z,26.33
2022-08-12T15:10:13.426Z,25.82
2022-08-12T15:12:42.170Z,25.77
2022-08-12T15:15:11.684Z,25.16
2022-08-12T15:17:40.306Z,25.69
2022-08-12T15:20:31.762Z,25.90
2022-08-12T15:23:00.511Z,26.10
2022-08-12T15:25:29.647Z,25.86
2022-08-12T15:28:10.834Z,25.95
2022-08-12T15:30:49.670Z,26.03
2022-08-12T15:33:21.120Z,26.10
2022-08-12T15:35:53.853Z,26.16
2022-08-12T15:38:28.090Z,26.41
2022-08-12T15:41:00.092Z,26.30
2022-08-12T15:44:15.878Z,26.60
2022-08-12T15:46:21.279Z,26.96
2022-08-12T15:48:54.831Z,26.36
2022-08-12T15:51:57.304Z,26.58
2022-08-12T15:54:30.807Z,27.37
2022-08-12T15:57:05.698Z,26.89
2022-08-12T16:00:03.911Z,26.60
2022-08-12T16:02:29.919Z,27.11
2022-08-12T16:04:58.841Z,27.25
2022-08-12T16:07:40.827Z,27.80
2022-08-12T16:10:11.769Z,27.79
2022-08-12T16:12:54.963Z,27.61
2022-08-12T16:15:26.698Z,28.04
2022-08-12T16:18:18.477Z,28.17
2022-08-12T16:20:47.343Z,28.31
2022-08-12T16:23:26.672Z,28.58
2022-08-12T16:26:15.151Z,28.88
2022-08-12T16:28:47.425Z,29.27
2022-08-12T16:31:23.231Z,29.67
2022-08-12T16:33:59.697Z,29.44
2022-08-12T16:36:30.363Z,29.46
2022-08-12T16:39:01.603Z,29.93
2022-08-12T16:41:38.039Z,29.50
2022-08-12T16:44:09.422Z,29.99
2022-08-12T16:46:39.253Z,29.95
2022-08-12T16:49:09.135Z,29.86
2022-08-12T16:51:46.850Z,29.37
2022-08-12T16:54:18.473Z,28.63
2022-08-12T16:56:55.191Z,28.90
2022-08-12T16:59:53.495Z,28.64
2022-08-12T17:02:31.963Z,28.53
2022-08-12T17:05:05.155Z,28.53
2022-08-12T17:07:36.811Z,28.52
2022-08-12T17:10:08.665Z,28.30
2022-08-12T17:12:39.001Z,28.30
2022-08-12T17:15:51.121Z,28.63
2022-08-12T17:18:42.285Z,28.89
2022-08-12T17:20:48.987Z,28.84
2022-08-12T17:23:20.319Z,28.78
2022-08-12T17:25:51.889Z,29.20
2022-08-12T17:28:23.098Z,29.54
2022-08-12T17:30:59.709Z,29.55
2022-08-12T17:33:34.742Z,29.51
2022-08-12T17:36:05.484Z,29.38
2022-08-12T17:38:35.145Z,29.95
2022-08-12T17:41:22.685Z,30.26
2022-08-12T17:43:58.577Z,30.21
2022-08-12T17:46:33.093Z,30.22
2022-08-12T17:49:18.834Z,30.71
2022-08-12T17:52:02.583Z,30.22
2022-08-12T17:54:32.830Z,30.48
2022-08-12T17:57:02.547Z,30.68
2022-08-12T17:59:48.029Z,30.55
2022-08-12T18:02:29.949Z,30.99
2022-08-12T18:05:09.440Z,31.05
2022-08-12T18:07:39.520Z,31.04
2022-08-12T18:10:09.147Z,31.39
2022-08-12T18:12:42.835Z,31.47
2022-08-12T18:15:26.024Z,31.53
2022-08-12T18:17:59.240Z,32.00
2022-08-12T18:20:29.768Z,32.35
2022-08-12T18:23:03.141Z,32.26
2022-08-12T18:26:14.989Z,32.24
2022-08-12T18:28:43.204Z,32.27
2022-08-12T18:31:16.871Z,32.53
2022-08-12T18:33:48.079Z,32.79
2022-08-12T18:36:22.429Z,32.84
2022-08-12T18:38:56.060Z,32.97
2022-08-12T18:41:34.305Z,32.88
2022-08-12T18:44:09.483Z,33.25
2022-08-12T18:46:53.678Z,33.20
2022-08-12T18:49:30.737Z,33.50
2022-08-12T18:52:05.731Z,33.38
2022-08-12T18:54:48.737Z,33.70
2022-08-12T18:58:07.582Z,33.81
2022-08-12T19:00:21.213Z,34.18
2022-08-12T19:02:54.037Z,34.24
2022-08-12T19:05:53.254Z,34.26
2022-08-12T19:08:14.420Z,34.49
2022-08-12T19:10:50.195Z,34.66
2022-08-12T19:13:37.692Z,34.87
2022-08-12T19:16:11.584Z,35.04
2022-08-12T19:18:44.970Z,35.20
2022-08-12T19:21:17.046Z,35.62
2022-08-12T19:24:11.626Z,35.77
2022-08-12T19:26:42.566Z,35.84
2022-08-12T19:29:12.054Z,36.14
2022-08-12T19:31:57.706Z,36.18
2022-08-12T19:37:27.195Z,36.40
2022-08-12T19:40:08.694Z,36.75
2022-08-12T19:43:00.726Z,37.12
2022-08-12T19:45:42.419Z,36.99
2022-08-12T19:48:19.289Z,37.34
2022-08-12T19:50:53.023Z,37.87
2022-08-12T19:53:23.506Z,37.73
2022-08-12T19:55:54.379Z,37.91
2022-08-12T19:58:24.516Z,37.92
2022-08-12T20:00:55.446Z,38.24
2022-08-12T20:03:37.937Z,38.57
2022-08-12T20:06:16.078Z,38.49
2022-08-12T20:08:47.912Z,38.89
2022-08-12T20:12:09.094Z,38.79
2022-08-12T20:14:08.321Z,38.97
2022-08-12T20:16:57.777Z,39.12
2022-08-12T20:20:01.130Z,39.24
2022-08-12T20:22:24.015Z,39.54
2022-08-12T20:25:01.320Z,39.80
2022-08-12T20:28:04.559Z,39.95
2022-08-12T20:30:52.446Z,40.00
2022-08-12T20:33:18.336Z,40.21
2022-08-12T20:36:13.838Z,40.39
2022-08-12T20:38:46.033Z,40.27
2022-08-12T20:41:19.031Z,40.63
2022-08-12T20:43:50.515Z,40.57
2022-08-12T20:46:21.230Z,40.68
2022-08-12T20:48:54.730Z,41.06
2022-08-12T20:51:23.952Z,40.64
2022-08-12T20:53:59.745Z,40.53
2022-08-12T20:56:33.026Z,40.69
2022-08-12T20:59:06.791Z,40.95
2022-08-12T21:01:47.657Z,41.16
2022-08-12T21:04:36.764Z,41.84
2022-08-12T21:07:09.535Z,41.84
2022-08-12T21:09:44.447Z,41.90
2022-08-12T21:12:27.632Z,41.81
2022-08-12T21:15:17.256Z,42.16
2022-08-12T21:18:10.583Z,41.96
2022-08-12T21:20:50.678Z,42.28
2022-08-12T21:23:21.459Z,42.46
2022-08-12T21:26:01.032Z,42.13
2022-08-12T21:28:31.100Z,42.78
2022-08-12T21:32:35.152Z,42.56
2022-08-12T21:34:07.233Z,42.98
2022-08-12T21:36:40.268Z,42.82
2022-08-12T21:39:21.649Z,43.20
2022-08-12T21:41:54.823Z,43.33
2022-08-12T21:45:44.558Z,43.08
2022-08-12T21:47:20.263Z,43.14
2022-08-12T21:49:54.161Z,43.25
2022-08-12T21:52:28.419Z,43.38
2022-08-12T21:55:04.240Z,43.58
2022-08-12T21:57:48.208Z,43.57
2022-08-12T22:00:20.840Z,43.42
2022-08-12T22:03:07.806Z,43.68
2022-08-12T22:05:53.746Z,43.70
2022-08-12T22:08:26.135Z,43.96
2022-08-12T22:10:56.514Z,43.96
2022-08-12T22:14:02.037Z,43.92
2022-08-12T22:16:17.819Z,43.85
2022-08-12T22:18:50.240Z,43.92
2022-08-12T22:21:22.310Z,44.42
2022-08-12T22:24:04.931Z,44.48
2022-08-12T22:26:37.458Z,44.65
2022-08-12T22:29:26.726Z,44.48
2022-08-12T22:31:56.300Z,44.40
2022-08-12T22:34:29.334Z,44.87
2022-08-12T22:36:58.367Z,45.08
2022-08-12T22:39:27.340Z,44.84
2022-08-12T22:42:12.974Z,44.90
2022-08-12T22:45:00.003Z,45.23
2022-08-12T22:47:53.911Z,45.13
2022-08-12T22:50:27.437Z,45.29
2022-08-12T22:53:15.109Z,45.39
2022-08-12T22:55:59.523Z,45.38
2022-08-12T22:58:40.288Z,45.48
2022-08-12T23:01:13.819Z,45.51
2022-08-12T23:04:00.487Z,45.53
2022-08-12T23:06:31.381Z,45.68
2022-08-12T23:08:59.711Z,45.83
2022-08-12T23:11:33.863Z,45.49
2022-08-12T23:14:08.898Z,45.79
2022-08-12T23:16:41.234Z,45.37
2022-08-12T23:19:18.152Z,45.82
2022-08-12T23:22:06.684Z,45.91
2022-08-12T23:24:56.357Z,45.74
2022-08-12T23:27:50.900Z,45.95
2022-08-12T23:30:31.649Z,46.03
2022-08-12T23:33:02.330Z,45.92
2022-08-12T23:35:53.795Z,46.17
2022-08-12T23:38:31.346Z,46.17
2022-08-12T23:41:01.312Z,46.27
2022-08-12T23:43:38.390Z,46.17
2022-08-12T23:46:10.416Z,46.49
2022-08-12T23:48:40.937Z,46.27
2022-08-12T23:51:22.382Z,46.57
2022-08-12T23:53:55.284Z,46.49
2022-08-12T23:56:25.336Z,46.49
2022-08-12T23:58:57.523Z,46.65
